Edgar Springs, Missouri
Current Conditions -  °F | °C
As of 12:58 PM on Friday 21 Nov 2014 (Local Time) from KTBN Reporting Station
Overcast Overcast  
Wind Chill: 38°   Ceiling: 2000
Heat Index: 45°   Visibility: 10mi
Dew Point: 27°   Wind: 17mph
Humidity: 49%   Direction: 140°SE
Pressure: 30.24"   Gusts: 22mph
Location:  37.7°N, 91.87°W
Report Text: KTBN 211858Z AUTO 14015G19KT 10SM OVC020 07/M03 A3024 RMK AO2 SLP251 T00721028
Loading
Personal Weather Stations






























Interactive Weather Map New forecast layout! Learn more

10-Day Weather Forecast

Advertisements
Track Severe Weather on mobile